createdAt,value
2022-08-12T00:01:05.207Z,101588.59
2022-08-12T00:03:51.582Z,101584.25
2022-08-12T00:06:40.200Z,101581.78
2022-08-12T00:09:26.735Z,101580.81
2022-08-12T00:12:12.905Z,101582.31
2022-08-12T00:14:58.674Z,101576.81
2022-08-12T00:17:44.111Z,101578.72
2022-08-12T00:20:29.995Z,101572.78
2022-08-12T00:23:16.497Z,101567.81
2022-08-12T00:26:20.636Z,101566.41
2022-08-12T00:29:12.404Z,101565.81
2022-08-12T00:32:00.029Z,101564.78
2022-08-12T00:34:47.756Z,101554.69
2022-08-12T00:37:35.386Z,101558.63
2022-08-12T00:40:23.935Z,101556.16
2022-08-12T00:42:51.654Z,101552.50
2022-08-12T00:45:19.654Z,101552.94
2022-08-12T00:47:46.982Z,101541.81
2022-08-12T00:50:19.992Z,101543.31
2022-08-12T00:52:50.591Z,101539.16
2022-08-12T00:55:18.699Z,101535.91
2022-08-12T00:57:48.777Z,101536.78
2022-08-12T01:00:23.621Z,101530.00
2022-08-12T01:02:54.331Z,101538.50
2022-08-12T01:05:44.060Z,101541.66
2022-08-12T01:08:29.417Z,101536.31
2022-08-12T01:11:16.117Z,101524.59
2022-08-12T01:13:50.262Z,101526.69
2022-08-12T01:16:22.873Z,101527.13
2022-08-12T01:18:52.475Z,101527.34
2022-08-12T01:21:34.644Z,101527.34
2022-08-12T01:24:29.865Z,101527.59
2022-08-12T01:26:59.861Z,101531.31
2022-08-12T01:29:33.010Z,101528.63
2022-08-12T01:32:05.715Z,101527.41
2022-08-12T01:34:37.756Z,101518.97
2022-08-12T01:37:08.066Z,101517.75
2022-08-12T01:40:35.493Z,101515.53
2022-08-12T01:42:48.076Z,101510.53
2022-08-12T01:45:17.758Z,101517.19
2022-08-12T01:47:53.927Z,101517.41
2022-08-12T01:51:00.442Z,101504.44
2022-08-12T01:53:53.191Z,101500.75
2022-08-12T01:56:24.987Z,101501.00
2022-08-12T01:59:15.727Z,101498.78
2022-08-12T02:01:45.918Z,101495.94
2022-08-12T02:05:05.079Z,101490.38
2022-08-12T02:08:14.520Z,101494.19
2022-08-12T02:11:17.639Z,101488.22
2022-08-12T02:14:06.538Z,101494.63
2022-08-12T02:16:54.309Z,101489.50
2022-08-12T02:19:57.034Z,101489.09
2022-08-12T02:22:39.158Z,101484.56
2022-08-12T02:25:15.817Z,101484.84
2022-08-12T02:27:47.691Z,101486.94
2022-08-12T02:30:22.437Z,101483.00
2022-08-12T02:32:51.784Z,101484.47
2022-08-12T02:35:23.758Z,101479.56
2022-08-12T02:37:54.259Z,101474.41
2022-08-12T02:40:22.798Z,101481.44
2022-08-12T02:43:02.613Z,101478.38
2022-08-12T02:45:38.399Z,101475.53
2022-08-12T02:48:25.030Z,101476.38
2022-08-12T02:50:53.566Z,101473.09
2022-08-12T02:53:21.702Z,101465.25
2022-08-12T02:55:49.538Z,101458.25
2022-08-12T02:58:19.779Z,101459.91
2022-08-12T03:00:53.089Z,101462.56
2022-08-12T03:03:36.991Z,101462.56
2022-08-12T03:06:38.288Z,101456.38
2022-08-12T03:09:07.051Z,101461.53
2022-08-12T03:11:42.787Z,101459.06
2022-08-12T03:14:19.082Z,101460.94
2022-08-12T03:16:58.485Z,101458.25
2022-08-12T03:19:25.963Z,101459.28
2022-08-12T03:22:09.456Z,101449.38
2022-08-12T03:24:42.744Z,101457.84
2022-08-12T03:27:13.336Z,101453.97
2022-08-12T03:29:51.524Z,101460.56
2022-08-12T03:32:35.021Z,101449.66
2022-08-12T03:37:37.249Z,101457.34
2022-08-12T03:40:05.353Z,101453.00
2022-08-12T03:42:41.217Z,101450.31
2022-08-12T03:45:46.438Z,101449.72
2022-08-12T03:48:38.497Z,101449.09
2022-08-12T03:51:24.555Z,101451.41
2022-08-12T03:54:11.503Z,101457.41
2022-08-12T03:57:00.666Z,101451.38
2022-08-12T03:59:46.178Z,101454.25
2022-08-12T04:02:18.204Z,101446.66
2022-08-12T04:04:49.328Z,101452.22
2022-08-12T04:07:17.149Z,101450.38
2022-08-12T04:09:46.562Z,101455.09
2022-08-12T04:12:33.312Z,101444.63
2022-08-12T04:15:01.479Z,101446.66
2022-08-12T04:17:29.230Z,101440.09
2022-08-12T04:19:58.175Z,101454.13
2022-08-12T04:22:31.059Z,101445.47
2022-08-12T04:25:03.042Z,101451.84
2022-08-12T04:27:32.392Z,101445.25
2022-08-12T04:30:31.655Z,101438.88
2022-08-12T04:32:50.820Z,101440.53
2022-08-12T04:35:18.488Z,101442.19
2022-08-12T04:37:58.675Z,101445.91
2022-08-12T04:40:30.823Z,101435.59
2022-08-12T04:42:58.968Z,101427.16
2022-08-12T04:45:26.193Z,101436.59
2022-08-12T04:47:53.317Z,101429.19
2022-08-12T04:50:33.870Z,101435.38
2022-08-12T04:53:03.498Z,101434.13
2022-08-12T04:55:30.531Z,101434.94
2022-08-12T04:57:58.045Z,101432.25
2022-08-12T05:00:24.924Z,101431.44
2022-08-12T05:02:52.550Z,101437.22
2022-08-12T05:05:23.223Z,101443.16
2022-08-12T05:07:53.920Z,101440.50
2022-08-12T05:10:33.370Z,101431.03
2022-08-12T05:13:05.703Z,101446.66
2022-08-12T05:15:32.688Z,101442.13
2022-08-12T05:18:00.083Z,101440.72
2022-08-12T05:20:29.492Z,101438.03
2022-08-12T05:23:13.063Z,101438.25
2022-08-12T05:25:43.513Z,101437.03
2022-08-12T05:28:13.270Z,101440.09
2022-08-12T05:30:42.817Z,101437.88
2022-08-12T05:33:11.894Z,101447.97
2022-08-12T05:35:43.272Z,101451.47
2022-08-12T05:38:29.773Z,101444.88
2022-08-12T05:40:56.988Z,101451.66
2022-08-12T05:43:24.589Z,101458.47
2022-08-12T05:45:51.560Z,101457.84
2022-08-12T05:48:18.891Z,101456.41
2022-08-12T05:50:46.303Z,101458.47
2022-08-12T05:53:13.989Z,101466.94
2022-08-12T05:55:41.106Z,101461.16
2022-08-12T05:58:08.351Z,101461.34
2022-08-12T06:00:36.410Z,101462.56
2022-08-12T06:03:04.930Z,101460.50
2022-08-12T06:05:54.558Z,101457.19
2022-08-12T06:08:23.897Z,101461.28
2022-08-12T06:10:50.868Z,101463.78
2022-08-12T06:13:28.588Z,101461.47
2022-08-12T06:16:07.630Z,101458.41
2022-08-12T06:18:35.437Z,101462.31
2022-08-12T06:21:02.542Z,101461.06
2022-08-12T06:23:30.576Z,101465.81
2022-08-12T06:25:58.688Z,101460.84
2022-08-12T06:28:26.553Z,101460.41
2022-08-12T06:31:22.313Z,101457.06
2022-08-12T06:33:55.237Z,101451.69
2022-08-12T06:36:29.975Z,101455.00
2022-08-12T06:38:59.519Z,101458.28
2022-08-12T06:42:04.843Z,101454.34
2022-08-12T06:44:32.892Z,101454.34
2022-08-12T06:47:00.174Z,101461.38
2022-08-12T06:49:28.878Z,101450.41
2022-08-12T06:51:56.828Z,101452.69
2022-08-12T06:54:30.778Z,101446.66
2022-08-12T06:57:57.499Z,101451.38
2022-08-12T06:59:45.134Z,101448.88
2022-08-12T07:02:12.816Z,101444.72
2022-08-12T07:04:39.851Z,101448.41
2022-08-12T07:07:08.912Z,101446.09
2022-08-12T07:10:05.527Z,101448.94
2022-08-12T07:12:26.607Z,101447.09
2022-08-12T07:14:54.739Z,101441.69
2022-08-12T07:17:21.720Z,101440.78
2022-08-12T07:19:50.210Z,101443.03
2022-08-12T07:22:17.016Z,101449.00
2022-08-12T07:25:04.124Z,101444.25
2022-08-12T07:27:31.275Z,101445.44
2022-08-12T07:30:04.138Z,101445.59
2022-08-12T07:32:31.960Z,101443.09
2022-08-12T07:34:58.820Z,101442.44
2022-08-12T07:37:25.647Z,101440.16
2022-08-12T07:40:00.556Z,101442.16
2022-08-12T07:42:29.634Z,101437.97
2022-08-12T07:44:56.999Z,101443.50
2022-08-12T07:47:24.551Z,101449.50
2022-08-12T07:50:05.435Z,101439.94
2022-08-12T07:52:38.661Z,101438.63
2022-08-12T07:55:06.825Z,101438.34
2022-08-12T07:57:34.032Z,101441.25
2022-08-12T08:00:03.781Z,101445.00
2022-08-12T08:02:33.931Z,101439.31
2022-08-12T08:05:01.012Z,101445.88
2022-08-12T08:07:30.788Z,101438.63
2022-08-12T08:10:02.414Z,101441.47
2022-08-12T08:12:48.792Z,101442.66
2022-08-12T08:15:16.379Z,101438.69
2022-08-12T08:18:25.588Z,101436.16
2022-08-12T08:20:54.883Z,101437.56
2022-08-12T08:23:21.801Z,101443.34
2022-08-12T08:25:50.242Z,101440.78
2022-08-12T08:28:17.403Z,101443.22
2022-08-12T08:30:47.967Z,101445.50
2022-08-12T08:33:23.612Z,101444.19
2022-08-12T08:36:10.826Z,101433.81
2022-08-12T08:38:56.004Z,101438.50
2022-08-12T08:42:15.459Z,101436.53
2022-08-12T08:44:31.537Z,101426.97
2022-08-12T08:46:58.715Z,101435.97
2022-08-12T08:49:25.967Z,101432.81
2022-08-12T08:51:53.078Z,101427.34
2022-08-12T08:54:19.971Z,101428.03
2022-08-12T08:56:50.155Z,101433.13
2022-08-12T08:59:19.542Z,101429.28
2022-08-12T09:01:47.945Z,101430.00
2022-08-12T09:05:09.197Z,101440.06
2022-08-12T09:07:17.343Z,101431.63
2022-08-12T09:10:01.920Z,101434.09
2022-08-12T09:12:55.179Z,101431.53
2022-08-12T09:15:35.694Z,101426.59
2022-08-12T09:18:08.469Z,101428.13
2022-08-12T09:20:38.846Z,101435.84
2022-08-12T09:23:57.142Z,101420.84
2022-08-12T09:26:04.415Z,101429.50
2022-08-12T09:28:33.684Z,101421.59
2022-08-12T09:31:00.717Z,101421.34
2022-08-12T09:34:29.146Z,101413.22
2022-08-12T09:36:31.016Z,101421.63
2022-08-12T09:40:04.170Z,101412.19
2022-08-12T09:42:39.028Z,101416.13
2022-08-12T09:45:24.684Z,101419.16
2022-08-12T09:48:09.588Z,101410.41
2022-08-12T09:50:36.835Z,101423.75
2022-08-12T09:53:15.528Z,101407.16
2022-08-12T09:56:07.360Z,101415.66
2022-08-12T09:58:57.507Z,101406.91
2022-08-12T10:01:24.549Z,101407.00
2022-08-12T10:04:03.348Z,101410.06
2022-08-12T10:06:54.181Z,101411.88
2022-08-12T10:09:23.271Z,101412.81
2022-08-12T10:12:31.606Z,101401.34
2022-08-12T10:15:00.972Z,101394.44
2022-08-12T10:17:27.893Z,101401.84
2022-08-12T10:19:54.694Z,101400.91
2022-08-12T10:22:36.751Z,101395.34
2022-08-12T10:26:35.547Z,101393.00
2022-08-12T10:29:02.821Z,101384.38
2022-08-12T10:31:43.550Z,101383.06
2022-08-12T10:34:23.651Z,101382.31
2022-08-12T10:37:15.620Z,101374.50
2022-08-12T10:40:06.281Z,101376.44
2022-08-12T10:43:00.692Z,101376.22
2022-08-12T10:45:30.412Z,101376.28
2022-08-12T10:48:07.297Z,101367.66
2022-08-12T10:51:02.097Z,101367.47
2022-08-12T10:53:45.758Z,101368.63
2022-08-12T10:56:18.609Z,101364.34
2022-08-12T10:58:47.069Z,101354.31
2022-08-12T11:01:49.361Z,101353.28
2022-08-12T11:04:35.880Z,101352.03
2022-08-12T11:07:08.177Z,101358.03
2022-08-12T11:10:00.937Z,101351.81
2022-08-12T11:12:55.505Z,101346.75
2022-08-12T11:15:20.792Z,101343.78
2022-08-12T11:17:53.699Z,101345.72
2022-08-12T11:20:24.176Z,101332.97
2022-08-12T11:23:04.008Z,101334.13
2022-08-12T11:25:56.044Z,101334.41
2022-08-12T11:28:33.184Z,101328.19
2022-08-12T11:31:03.467Z,101329.03
2022-08-12T11:34:04.286Z,101328.50
2022-08-12T11:36:18.155Z,101325.56
2022-08-12T11:38:50.925Z,101327.44
2022-08-12T11:41:31.600Z,101318.78
2022-08-12T11:44:35.321Z,101323.94
2022-08-12T11:46:58.184Z,101327.22
2022-08-12T11:49:31.768Z,101324.25
2022-08-12T11:52:04.048Z,101322.63
2022-08-12T11:54:31.796Z,101330.22
2022-08-12T11:57:02.521Z,101325.88
2022-08-12T12:02:20.593Z,101317.75
2022-08-12T12:04:52.962Z,101320.22
2022-08-12T12:08:38.800Z,101308.81
2022-08-12T12:10:15.284Z,101311.81
2022-08-12T12:12:49.729Z,101308.56
2022-08-12T12:15:25.315Z,101302.88
2022-08-12T12:18:04.365Z,101299.06
2022-08-12T12:20:31.859Z,101301.50
2022-08-12T12:23:00.138Z,101286.31
2022-08-12T12:25:59.584Z,101293.94
2022-08-12T12:28:36.677Z,101295.84
2022-08-12T12:31:04.228Z,101289.34
2022-08-12T12:33:56.750Z,101285.00
2022-08-12T12:36:24.052Z,101290.16
2022-08-12T12:38:56.653Z,101284.19
2022-08-12T12:42:40.596Z,101289.34
2022-08-12T12:44:13.311Z,101282.28
2022-08-12T12:46:41.932Z,101282.53
2022-08-12T12:49:15.200Z,101277.41
2022-08-12T12:51:56.410Z,101284.19
2022-08-12T12:54:29.297Z,101278.50
2022-08-12T12:56:56.213Z,101282.03
2022-08-12T12:59:33.703Z,101270.06
2022-08-12T13:02:14.215Z,101260.03
2022-08-12T13:05:00.253Z,101260.03
2022-08-12T13:07:49.404Z,101257.03
2022-08-12T13:10:14.075Z,101255.13
2022-08-12T13:12:42.409Z,101257.03
2022-08-12T13:15:43.607Z,101252.97
2022-08-12T13:18:04.848Z,101261.63
2022-08-12T13:20:38.222Z,101264.91
2022-08-12T13:23:36.067Z,101268.69
2022-08-12T13:26:01.886Z,101263.53
2022-08-12T13:28:31.053Z,101256.19
2022-08-12T13:30:59.720Z,101257.28
2022-08-12T13:33:28.550Z,101255.66
2022-08-12T13:36:05.795Z,101246.94
2022-08-12T13:38:42.899Z,101247.78
2022-08-12T13:41:18.546Z,101242.59
2022-08-12T13:43:47.270Z,101250.22
2022-08-12T13:46:14.898Z,101247.50
2022-08-12T13:48:44.859Z,101242.31
2022-08-12T13:51:12.616Z,101239.06
2022-08-12T13:53:57.605Z,101229.81
2022-08-12T13:56:38.931Z,101224.69
2022-08-12T13:59:08.821Z,101218.13
2022-08-12T14:01:40.414Z,101228.72
2022-08-12T14:04:11.540Z,101224.38
2022-08-12T14:06:41.627Z,101216.53
2022-08-12T14:09:17.414Z,101218.44
2022-08-12T14:11:58.958Z,101218.13
2022-08-12T14:14:31.812Z,101217.88
2022-08-12T14:17:05.672Z,101209.16
2022-08-12T14:19:39.285Z,101207.56
2022-08-12T14:22:17.604Z,101197.78
2022-08-12T14:24:44.407Z,101203.47
2022-08-12T14:27:12.768Z,101195.88
2022-08-12T14:30:05.684Z,101192.09
2022-08-12T14:32:35.637Z,101201.56
2022-08-12T14:35:09.287Z,101208.09
2022-08-12T14:37:56.196Z,101200.25
2022-08-12T14:40:28.139Z,101192.34
2022-08-12T14:42:57.208Z,101196.97
2022-08-12T14:45:45.326Z,101198.59
2022-08-12T14:48:13.330Z,101201.31
2022-08-12T14:51:02.821Z,101196.41
2022-08-12T14:59:57.319Z,101205.38
2022-08-12T15:02:20.886Z,101194.50
2022-08-12T15:04:56.226Z,101187.75
2022-08-12T15:07:33.490Z,101201.84
2022-08-12T15:10:10.339Z,101184.22
2022-08-12T15:12:40.480Z,101187.75
2022-08-12T15:15:09.144Z,101191.00
2022-08-12T15:17:38.704Z,101185.31
2022-08-12T15:20:31.259Z,101182.59
2022-08-12T15:22:55.758Z,101186.38
2022-08-12T15:25:22.848Z,101177.44
2022-08-12T15:28:05.411Z,101188.84
2022-08-12T15:30:34.994Z,101183.16
2022-08-12T15:33:12.825Z,101183.97
2022-08-12T15:35:52.123Z,101176.09
2022-08-12T15:38:27.527Z,101178.25
2022-08-12T15:40:55.622Z,101174.72
2022-08-12T15:43:51.458Z,101185.06
2022-08-12T15:46:15.269Z,101179.91
2022-08-12T15:48:46.898Z,101177.19
2022-08-12T15:51:57.674Z,101173.91
2022-08-12T15:54:33.612Z,101167.72
2022-08-12T15:57:10.723Z,101174.22
2022-08-12T16:00:00.198Z,101178.00
2022-08-12T16:02:26.646Z,101169.31
2022-08-12T16:04:55.129Z,101162.81
2022-08-12T16:07:26.251Z,101165.53
2022-08-12T16:10:05.500Z,101172.59
2022-08-12T16:12:39.763Z,101169.63
2022-08-12T16:15:07.448Z,101160.34
2022-08-12T16:18:18.869Z,101171.22
2022-08-12T16:20:33.078Z,101163.88
2022-08-12T16:23:26.259Z,101169.31
2022-08-12T16:26:05.265Z,101172.31
2022-08-12T16:28:38.101Z,101157.13
2022-08-12T16:31:05.727Z,101156.84
2022-08-12T16:33:59.089Z,101157.94
2022-08-12T16:36:43.993Z,101155.22
2022-08-12T16:39:12.078Z,101156.31
2022-08-12T16:41:39.701Z,101162.81
2022-08-12T16:44:08.266Z,101154.94
2022-08-12T16:46:41.303Z,101160.38
2022-08-12T16:49:25.068Z,101146.28
2022-08-12T16:51:52.546Z,101151.66
2022-08-12T16:54:26.698Z,101152.75
2022-08-12T16:57:05.695Z,101150.31
2022-08-12T16:59:53.178Z,101154.91
2022-08-12T17:02:34.131Z,101152.75
2022-08-12T17:05:04.303Z,101145.44
2022-08-12T17:07:36.820Z,101148.66
2022-08-12T17:10:13.100Z,101153.84
2022-08-12T17:12:40.276Z,101151.13
2022-08-12T17:15:51.024Z,101151.94
2022-08-12T17:18:39.438Z,101153.31
2022-08-12T17:20:49.050Z,101145.97
2022-08-12T17:23:17.996Z,101146.53
2022-08-12T17:25:50.595Z,101148.16
2022-08-12T17:28:18.480Z,101143.00
2022-08-12T17:30:46.222Z,101137.03
2022-08-12T17:33:25.083Z,101137.28
2022-08-12T17:35:53.439Z,101142.97
2022-08-12T17:38:21.265Z,101142.47
2022-08-12T17:40:51.208Z,101143.78
2022-08-12T17:43:56.269Z,101132.38
2022-08-12T17:46:08.041Z,101133.19
2022-08-12T17:48:55.363Z,101138.91
2022-08-12T17:51:25.311Z,101128.34
2022-08-12T17:54:05.753Z,101137.28
2022-08-12T17:56:39.303Z,101128.59
2022-08-12T17:59:07.710Z,101134.28
2022-08-12T18:01:35.995Z,101136.69
2022-08-12T18:04:21.688Z,101137.25
2022-08-12T18:06:55.694Z,101136.16
2022-08-12T18:09:24.266Z,101137.75
2022-08-12T18:12:12.041Z,101138.31
2022-08-12T18:14:41.360Z,101139.94
2022-08-12T18:17:18.210Z,101144.25
2022-08-12T18:20:05.114Z,101145.59
2022-08-12T18:22:33.120Z,101146.16
2022-08-12T18:26:13.036Z,101150.19
2022-08-12T18:28:15.570Z,101151.00
2022-08-12T18:30:52.452Z,101154.78
2022-08-12T18:33:25.352Z,101150.97
2022-08-12T18:35:55.616Z,101153.16
2022-08-12T18:38:24.713Z,101152.59
2022-08-12T18:41:21.424Z,101148.78
2022-08-12T18:44:16.402Z,101151.19
2022-08-12T18:47:01.673Z,101151.75
2022-08-12T18:49:37.956Z,101151.16
2022-08-12T18:52:08.456Z,101145.44
2022-08-12T18:54:53.856Z,101153.03
2022-08-12T18:58:06.019Z,101155.19
2022-08-12T19:00:21.369Z,101154.63
2022-08-12T19:02:50.848Z,101161.66
2022-08-12T19:05:17.955Z,101153.25
2022-08-12T19:08:01.587Z,101155.94
2022-08-12T19:10:31.797Z,101157.84
2022-08-12T19:13:36.664Z,101154.56
2022-08-12T19:16:10.150Z,101157.56
2022-08-12T19:18:40.519Z,101157.56
2022-08-12T19:21:16.941Z,101154.28
2022-08-12T19:24:07.581Z,101161.84
2022-08-12T19:26:41.775Z,101162.38
2022-08-12T19:29:11.047Z,101155.56
2022-08-12T19:31:58.339Z,101160.72
2022-08-12T19:38:02.498Z,101167.16
2022-08-12T19:40:31.104Z,101179.34
2022-08-12T19:43:01.921Z,101165.25
2022-08-12T19:45:43.778Z,101167.41
2022-08-12T19:48:18.485Z,101166.28
2022-08-12T19:50:49.898Z,101169.50
2022-08-12T19:53:24.866Z,101172.19
2022-08-12T19:55:56.145Z,101183.81
2022-08-12T19:58:26.884Z,101180.81
2022-08-12T20:00:55.614Z,101185.91
2022-08-12T20:03:38.583Z,101177.25
2022-08-12T20:06:15.853Z,101177.75
2022-08-12T20:08:53.848Z,101188.28
2022-08-12T20:12:13.915Z,101190.13
2022-08-12T20:14:18.589Z,101197.72
2022-08-12T20:16:52.529Z,101191.16
2022-08-12T20:19:23.519Z,101193.34
2022-08-12T20:21:50.758Z,101198.41
2022-08-12T20:24:19.211Z,101181.91
2022-08-12T20:26:48.247Z,101189.72
2022-08-12T20:29:16.568Z,101190.22
2022-08-12T20:31:44.612Z,101192.63
2022-08-12T20:34:12.422Z,101190.44
2022-08-12T20:36:47.140Z,101187.41
2022-08-12T20:39:52.730Z,101186.88
2022-08-12T20:42:12.941Z,101178.44
2022-08-12T20:44:42.529Z,101178.69
2022-08-12T20:47:16.683Z,101174.34
2022-08-12T20:49:55.950Z,101184.03
2022-08-12T20:52:34.283Z,101180.75
2022-08-12T20:55:04.419Z,101184.81
2022-08-12T20:57:37.836Z,101190.22
2022-08-12T21:00:14.537Z,101186.94
2022-08-12T21:02:46.077Z,101183.13
2022-08-12T21:06:09.785Z,101186.34
2022-08-12T21:08:27.729Z,101188.72
2022-08-12T21:10:59.032Z,101187.09
2022-08-12T21:13:27.080Z,101198.16
2022-08-12T21:15:59.770Z,101193.25
2022-08-12T21:18:30.591Z,101204.81
2022-08-12T21:20:59.368Z,101201.59
2022-08-12T21:23:30.760Z,101200.44
2022-08-12T21:26:01.231Z,101204.72
2022-08-12T21:28:32.005Z,101194.97
2022-08-12T21:32:36.084Z,101200.66
2022-08-12T21:34:08.251Z,101197.13
2022-08-12T21:36:49.532Z,101197.88
2022-08-12T21:39:21.870Z,101197.31
2022-08-12T21:41:52.334Z,101200.53
2022-08-12T21:45:44.147Z,101196.66
2022-08-12T21:47:21.053Z,101197.72
2022-08-12T21:50:03.135Z,101196.31
2022-08-12T21:52:41.073Z,101199.53
2022-08-12T21:55:17.830Z,101198.41
2022-08-12T21:57:54.920Z,101200.53
2022-08-12T22:00:34.620Z,101199.72
2022-08-12T22:04:03.259Z,101192.69
2022-08-12T22:06:26.551Z,101196.13
2022-08-12T22:09:16.670Z,101201.22
2022-08-12T22:11:56.342Z,101203.63
2022-08-12T22:14:30.250Z,101204.91
2022-08-12T22:17:00.533Z,101201.09
2022-08-12T22:19:28.227Z,101208.06
2022-08-12T22:21:57.515Z,101200.94
2022-08-12T22:24:29.975Z,101199.56
2022-08-12T22:27:07.971Z,101206.28
2022-08-12T22:30:05.632Z,101199.75
2022-08-12T22:32:34.556Z,101201.28
2022-08-12T22:35:24.034Z,101199.66
2022-08-12T22:37:53.690Z,101197.78
2022-08-12T22:40:23.787Z,101192.63
2022-08-12T22:43:15.347Z,101189.13
2022-08-12T22:46:01.800Z,101190.41
2022-08-12T22:48:29.230Z,101193.00
2022-08-12T22:50:59.100Z,101183.78
2022-08-12T22:53:36.246Z,101188.84
2022-08-12T22:56:07.000Z,101187.44
2022-08-12T22:58:41.243Z,101183.97
2022-08-12T23:01:13.799Z,101185.50
2022-08-12T23:03:50.970Z,101178.97
2022-08-12T23:06:31.766Z,101184.03
2022-08-12T23:08:59.724Z,101174.31
2022-08-12T23:11:36.245Z,101177.25
2022-08-12T23:14:08.132Z,101169.06
2022-08-12T23:16:47.447Z,101181.41
2022-08-12T23:19:17.953Z,101181.09
2022-08-12T23:22:06.513Z,101177.28
2022-08-12T23:24:55.946Z,101179.88
2022-08-12T23:27:51.703Z,101178.72
2022-08-12T23:30:32.138Z,101178.38
2022-08-12T23:33:03.147Z,101175.59
2022-08-12T23:35:54.074Z,101168.25
2022-08-12T23:38:32.217Z,101165.78
2022-08-12T23:41:04.570Z,101164.16
2022-08-12T23:43:39.301Z,101169.53
2022-08-12T23:46:09.966Z,101162.97
2022-08-12T23:48:38.153Z,101165.94
2022-08-12T23:51:22.300Z,101163.94
2022-08-12T23:53:54.654Z,101164.19
2022-08-12T23:56:23.926Z,101166.53
2022-08-12T23:58:58.460Z,101158.94
